createdAt,value
2023-01-20T00:00:26.901Z,89
2023-01-20T00:01:33.941Z,89
2023-01-20T00:02:40.632Z,89
2023-01-20T00:03:47.834Z,89
2023-01-20T00:04:54.742Z,89
2023-01-20T00:06:01.833Z,89
2023-01-20T00:07:08.976Z,89
2023-01-20T00:08:15.566Z,89
2023-01-20T00:09:22.760Z,89
2023-01-20T00:10:29.757Z,89
2023-01-20T00:11:36.829Z,89
2023-01-20T00:12:43.925Z,89
2023-01-20T00:13:50.510Z,90
2023-01-20T00:14:57.813Z,90
2023-01-20T00:16:04.855Z,90
2023-01-20T00:17:11.813Z,90
2023-01-20T00:18:18.922Z,90
2023-01-20T00:19:25.540Z,90
2023-01-20T00:20:32.701Z,90
2023-01-20T00:21:39.799Z,90
2023-01-20T00:22:46.865Z,90
2023-01-20T00:23:53.923Z,90
2023-01-20T00:25:00.583Z,90
2023-01-20T00:26:07.714Z,90
2023-01-20T00:27:14.789Z,90
2023-01-20T00:28:21.847Z,90
2023-01-20T00:29:28.953Z,90
2023-01-20T00:30:35.587Z,90
2023-01-20T00:31:42.781Z,90
2023-01-20T00:32:49.794Z,90
2023-01-20T00:35:03.939Z,90
2023-01-20T00:36:10.575Z,90
2023-01-20T00:37:17.651Z,90
2023-01-20T00:38:24.743Z,90
2023-01-20T00:39:31.866Z,90
2023-01-20T00:40:39.294Z,90
2023-01-20T00:41:45.540Z,90
2023-01-20T00:42:52.661Z,90
2023-01-20T00:43:59.799Z,90
2023-01-20T00:45:06.893Z,90
2023-01-20T00:46:14.083Z,90
2023-01-20T00:47:20.566Z,90
2023-01-20T00:48:27.703Z,90
2023-01-20T00:49:34.808Z,90
2023-01-20T00:50:41.839Z,90
2023-01-20T00:51:49.120Z,90
2023-01-20T00:52:55.622Z,90
2023-01-20T00:54:02.671Z,90
2023-01-20T00:55:09.739Z,90
2023-01-20T00:56:16.994Z,90
2023-01-20T00:57:24.032Z,90
2023-01-20T00:58:30.579Z,90
2023-01-20T00:59:37.739Z,90
2023-01-20T01:00:44.871Z,90
2023-01-20T01:01:52.043Z,90
2023-01-20T01:02:59.053Z,90
2023-01-20T01:04:05.597Z,90
2023-01-20T01:05:12.881Z,90
2023-01-20T01:06:19.775Z,91
2023-01-20T01:07:26.912Z,90
2023-01-20T01:08:34.013Z,90
2023-01-20T01:09:40.591Z,91
2023-01-20T01:10:47.784Z,91
2023-01-20T01:11:54.850Z,91
2023-01-20T01:13:01.893Z,91
2023-01-20T01:14:09.051Z,91
2023-01-20T01:15:15.630Z,91
2023-01-20T01:16:22.757Z,91
2023-01-20T01:17:29.932Z,91
2023-01-20T01:18:36.904Z,91
2023-01-20T01:19:44.100Z,91
2023-01-20T01:20:50.566Z,91
2023-01-20T01:21:57.777Z,91
2023-01-20T01:23:04.879Z,91
2023-01-20T01:24:11.889Z,91
2023-01-20T01:26:25.652Z,91
2023-01-20T01:27:32.725Z,91
2023-01-20T01:28:39.835Z,91
2023-01-20T01:29:46.946Z,91
2023-01-20T01:30:54.298Z,91
2023-01-20T01:32:00.625Z,91
2023-01-20T01:33:07.758Z,91
2023-01-20T01:34:14.852Z,91
2023-01-20T01:35:21.933Z,91
2023-01-20T01:36:29.069Z,91
2023-01-20T01:38:42.756Z,91
2023-01-20T01:39:49.838Z,91
2023-01-20T01:40:57.083Z,91
2023-01-20T01:42:04.058Z,91
2023-01-20T01:43:10.690Z,91
2023-01-20T01:44:17.781Z,91
2023-01-20T01:45:24.965Z,91
2023-01-20T01:46:31.975Z,91
2023-01-20T01:47:39.460Z,91
2023-01-20T01:48:45.719Z,91
2023-01-20T01:49:52.727Z,91
2023-01-20T01:54:20.825Z,91
2023-01-20T01:55:27.789Z,91
2023-01-20T01:56:35.432Z,91
2023-01-20T01:57:41.926Z,91
2023-01-20T01:58:48.544Z,91
2023-01-20T01:59:55.664Z,91
2023-01-20T02:01:02.825Z,91
2023-01-20T02:02:09.961Z,90
2023-01-20T02:03:17.034Z,91
2023-01-20T02:04:23.519Z,91
2023-01-20T02:05:30.671Z,91
2023-01-20T02:06:37.787Z,91
2023-01-20T02:07:44.946Z,91
2023-01-20T02:08:51.971Z,91
2023-01-20T02:09:58.565Z,91
2023-01-20T02:11:05.693Z,91
2023-01-20T02:12:12.781Z,90
2023-01-20T02:13:19.971Z,91
2023-01-20T02:14:27.043Z,91
2023-01-20T02:15:33.599Z,91
2023-01-20T02:16:40.702Z,91
2023-01-20T02:17:47.824Z,91
2023-01-20T02:18:54.877Z,90
2023-01-20T02:20:01.956Z,91
2023-01-20T02:21:08.622Z,90
2023-01-20T02:22:15.734Z,90
2023-01-20T02:23:22.770Z,90
2023-01-20T02:24:29.939Z,90
2023-01-20T02:25:37.049Z,90
2023-01-20T02:26:43.573Z,90
2023-01-20T02:27:50.659Z,90
2023-01-20T02:28:57.796Z,90
2023-01-20T02:30:04.946Z,90
2023-01-20T02:31:12.108Z,90
2023-01-20T02:32:19.222Z,90
2023-01-20T02:33:25.703Z,90
2023-01-20T02:34:32.770Z,90
2023-01-20T02:35:39.954Z,90
2023-01-20T02:36:47.039Z,90
2023-01-20T02:37:53.691Z,90
2023-01-20T02:39:00.664Z,90
2023-01-20T02:40:07.833Z,90
2023-01-20T02:41:15.014Z,91
2023-01-20T02:42:22.053Z,91
2023-01-20T02:43:28.623Z,91
2023-01-20T02:44:35.729Z,91
2023-01-20T02:45:42.896Z,91
2023-01-20T02:46:49.982Z,91
2023-01-20T02:47:57.070Z,91
2023-01-20T02:49:03.614Z,91
2023-01-20T02:50:10.716Z,91
2023-01-20T02:51:17.831Z,91
2023-01-20T02:52:24.976Z,91
2023-01-20T02:54:38.645Z,91
2023-01-20T02:55:45.702Z,91
2023-01-20T02:56:52.855Z,91
2023-01-20T02:58:00.028Z,91
2023-01-20T02:59:07.108Z,91
2023-01-20T03:00:14.671Z,91
2023-01-20T03:01:20.953Z,91
2023-01-20T03:02:27.948Z,91
2023-01-20T03:03:34.992Z,91
2023-01-20T03:04:42.031Z,91
2023-01-20T03:05:48.739Z,91
2023-01-20T03:06:55.832Z,91
2023-01-20T03:08:02.926Z,91
2023-01-20T03:09:09.964Z,91
2023-01-20T03:10:17.083Z,91
2023-01-20T03:11:23.641Z,91
2023-01-20T03:12:30.864Z,91
2023-01-20T03:13:37.860Z,91
2023-01-20T03:14:44.988Z,91
2023-01-20T03:15:52.290Z,91
2023-01-20T03:16:58.699Z,91
2023-01-20T03:18:05.930Z,91
2023-01-20T03:19:12.909Z,91
2023-01-20T03:20:19.959Z,91
2023-01-20T03:21:27.083Z,91
2023-01-20T03:22:33.693Z,91
2023-01-20T03:23:40.782Z,91
2023-01-20T03:24:47.890Z,91
2023-01-20T03:25:54.995Z,91
2023-01-20T03:27:02.101Z,91
2023-01-20T03:28:08.745Z,91
2023-01-20T03:29:15.765Z,91
2023-01-20T03:30:22.967Z,91
2023-01-20T03:31:30.197Z,91
2023-01-20T03:32:37.127Z,91
2023-01-20T03:33:43.644Z,90
2023-01-20T03:34:50.802Z,91
2023-01-20T03:35:57.939Z,91
2023-01-20T03:37:05.015Z,90
2023-01-20T03:38:11.616Z,90
2023-01-20T03:39:18.757Z,90
2023-01-20T03:40:25.792Z,90
2023-01-20T03:41:32.901Z,90
2023-01-20T03:42:40.122Z,90
2023-01-20T03:43:46.707Z,90
2023-01-20T03:46:00.903Z,91
2023-01-20T03:47:08.003Z,91
2023-01-20T03:48:15.072Z,91
2023-01-20T03:49:22.092Z,91
2023-01-20T03:50:28.708Z,91
2023-01-20T03:51:35.882Z,91
2023-01-20T03:52:47.207Z,91
2023-01-20T03:53:50.066Z,90
2023-01-20T03:54:56.836Z,91
2023-01-20T03:56:03.704Z,91
2023-01-20T03:57:10.904Z,90
2023-01-20T03:58:17.919Z,91
2023-01-20T03:59:25.017Z,91
2023-01-20T04:00:31.639Z,91
2023-01-20T04:01:38.918Z,91
2023-01-20T04:02:45.811Z,91
2023-01-20T04:03:53.416Z,91
2023-01-20T04:05:00.108Z,91
2023-01-20T04:06:06.698Z,91
2023-01-20T04:07:13.759Z,90
2023-01-20T04:08:20.849Z,90
2023-01-20T04:09:27.899Z,90
2023-01-20T04:10:35.057Z,90
2023-01-20T04:11:41.630Z,90
2023-01-20T04:12:48.807Z,90
2023-01-20T04:13:55.897Z,90
2023-01-20T04:15:02.915Z,90
2023-01-20T04:16:10.164Z,90
2023-01-20T04:17:16.751Z,90
2023-01-20T04:18:23.753Z,90
2023-01-20T04:19:30.870Z,90
2023-01-20T04:20:37.951Z,90
2023-01-20T04:22:51.666Z,90
2023-01-20T04:23:58.742Z,90
2023-01-20T04:25:05.856Z,90
2023-01-20T04:26:12.954Z,90
2023-01-20T04:27:20.164Z,90
2023-01-20T04:28:26.672Z,90
2023-01-20T04:29:33.718Z,90
2023-01-20T04:30:41.048Z,90
2023-01-20T04:31:48.060Z,90
2023-01-20T04:32:55.134Z,90
2023-01-20T04:34:01.670Z,90
2023-01-20T04:35:08.792Z,90
2023-01-20T04:36:15.932Z,90
2023-01-20T04:37:22.977Z,90
2023-01-20T04:38:30.090Z,90
2023-01-20T04:39:36.714Z,90
2023-01-20T04:40:43.762Z,90
2023-01-20T04:41:50.861Z,90
2023-01-20T04:42:58.156Z,91
2023-01-20T04:44:05.120Z,91
2023-01-20T04:45:11.632Z,91
2023-01-20T04:46:18.816Z,91
2023-01-20T04:47:25.913Z,91
2023-01-20T04:49:40.176Z,90
2023-01-20T04:50:46.711Z,90
2023-01-20T04:51:53.807Z,90
2023-01-20T04:53:01.012Z,90
2023-01-20T04:54:08.117Z,90
2023-01-20T04:55:15.426Z,90
2023-01-20T04:56:21.685Z,90
2023-01-20T04:57:28.866Z,90
2023-01-20T04:58:35.888Z,90
2023-01-20T04:59:42.961Z,90
2023-01-20T05:00:50.149Z,90
2023-01-20T05:01:56.812Z,90
2023-01-20T05:03:03.871Z,90
2023-01-20T05:04:10.865Z,90
2023-01-20T05:05:18.163Z,90
2023-01-20T05:06:25.189Z,90
2023-01-20T05:07:32.290Z,90
2023-01-20T05:08:38.955Z,90
2023-01-20T05:09:45.941Z,90
2023-01-20T05:10:54.374Z,90
2023-01-20T05:12:00.199Z,90
2023-01-20T05:13:06.741Z,90
2023-01-20T05:14:13.868Z,90
2023-01-20T05:15:20.950Z,90
2023-01-20T05:16:28.021Z,90
2023-01-20T05:17:35.194Z,90
2023-01-20T05:18:42.353Z,90
2023-01-20T05:19:48.843Z,90
2023-01-20T05:20:55.981Z,90
2023-01-20T05:22:03.053Z,90
2023-01-20T05:23:10.218Z,90
2023-01-20T05:24:16.740Z,90
2023-01-20T05:25:23.840Z,90
2023-01-20T05:26:30.922Z,91
2023-01-20T05:27:38.101Z,90
2023-01-20T05:28:45.196Z,90
2023-01-20T05:29:51.755Z,91
2023-01-20T05:30:58.941Z,90
2023-01-20T05:32:05.986Z,90
2023-01-20T05:33:13.131Z,90
2023-01-20T05:34:20.265Z,90
2023-01-20T05:35:26.784Z,90
2023-01-20T05:36:33.821Z,90
2023-01-20T05:37:40.953Z,90
2023-01-20T05:38:48.092Z,90
2023-01-20T05:39:55.166Z,90
2023-01-20T05:41:01.780Z,90
2023-01-20T05:42:08.882Z,90
2023-01-20T05:43:16.051Z,90
2023-01-20T05:44:23.029Z,90
2023-01-20T05:45:30.217Z,90
2023-01-20T05:46:36.778Z,90
2023-01-20T05:47:43.893Z,90
2023-01-20T05:48:50.923Z,90
2023-01-20T05:51:05.211Z,90
2023-01-20T05:53:18.982Z,91
2023-01-20T05:54:25.966Z,91
2023-01-20T05:55:33.100Z,91
2023-01-20T05:56:40.309Z,91
2023-01-20T05:57:46.988Z,90
2023-01-20T05:58:53.875Z,91
2023-01-20T06:00:00.983Z,90
2023-01-20T06:01:08.202Z,91
2023-01-20T06:02:15.249Z,90
2023-01-20T06:03:21.746Z,91
2023-01-20T06:04:28.920Z,90
2023-01-20T06:05:36.020Z,91
2023-01-20T06:06:43.125Z,91
2023-01-20T06:07:49.761Z,90
2023-01-20T06:08:56.831Z,91
2023-01-20T06:10:03.917Z,91
2023-01-20T06:11:11.540Z,90
2023-01-20T06:12:18.170Z,90
2023-01-20T06:13:25.261Z,90
2023-01-20T06:14:31.810Z,91
2023-01-20T06:15:38.981Z,91
2023-01-20T06:16:46.059Z,90
2023-01-20T06:17:53.189Z,91
2023-01-20T06:19:00.243Z,91
2023-01-20T06:20:06.820Z,91
2023-01-20T06:21:13.927Z,90
2023-01-20T06:22:21.154Z,91
2023-01-20T06:23:28.184Z,91
2023-01-20T06:24:35.277Z,91
2023-01-20T06:25:42.271Z,91
2023-01-20T06:26:48.914Z,91
2023-01-20T06:27:56.112Z,91
2023-01-20T06:29:03.134Z,91
2023-01-20T06:30:10.220Z,91
2023-01-20T06:31:16.997Z,91
2023-01-20T06:32:24.038Z,91
2023-01-20T06:33:31.052Z,91
2023-01-20T06:34:38.169Z,91
2023-01-20T06:35:45.271Z,91
2023-01-20T06:36:51.810Z,91
2023-01-20T06:37:58.978Z,91
2023-01-20T06:39:06.098Z,91
2023-01-20T06:40:13.158Z,91
2023-01-20T06:41:20.346Z,91
2023-01-20T06:42:26.878Z,91
2023-01-20T06:43:33.959Z,90
2023-01-20T06:44:41.055Z,90
2023-01-20T06:45:48.201Z,91
2023-01-20T06:46:55.354Z,91
2023-01-20T06:48:01.896Z,90
2023-01-20T06:49:08.970Z,90
2023-01-20T06:50:16.039Z,91
2023-01-20T06:51:23.127Z,91
2023-01-20T06:52:29.766Z,91
2023-01-20T06:53:36.840Z,91
2023-01-20T06:54:43.985Z,91
2023-01-20T06:56:58.119Z,91
2023-01-20T06:58:04.931Z,91
2023-01-20T06:59:11.817Z,91
2023-01-20T07:00:18.946Z,91
2023-01-20T07:01:26.394Z,91
2023-01-20T07:02:33.251Z,91
2023-01-20T07:03:39.752Z,91
2023-01-20T07:04:46.922Z,91
2023-01-20T07:05:53.956Z,91
2023-01-20T07:07:01.112Z,91
2023-01-20T07:08:08.283Z,91
2023-01-20T07:09:14.797Z,91
2023-01-20T07:10:21.871Z,91
2023-01-20T07:11:29.016Z,91
2023-01-20T07:12:36.141Z,91
2023-01-20T07:13:43.216Z,91
2023-01-20T07:14:50.324Z,91
2023-01-20T07:15:56.967Z,91
2023-01-20T07:17:04.101Z,91
2023-01-20T07:19:18.298Z,91
2023-01-20T07:20:24.808Z,91
2023-01-20T07:21:31.874Z,91
2023-01-20T07:22:39.032Z,91
2023-01-20T07:23:46.145Z,91
2023-01-20T07:24:53.222Z,91
2023-01-20T07:25:59.813Z,91
2023-01-20T07:27:06.909Z,91
2023-01-20T07:28:13.979Z,91
2023-01-20T07:29:21.126Z,91
2023-01-20T07:30:28.358Z,91
2023-01-20T07:31:34.884Z,91
2023-01-20T07:32:41.941Z,91
2023-01-20T07:33:49.010Z,91
2023-01-20T07:34:56.074Z,91
2023-01-20T07:36:03.212Z,91
2023-01-20T07:37:09.870Z,91
2023-01-20T07:38:17.005Z,91
2023-01-20T07:39:24.065Z,91
2023-01-20T07:40:31.101Z,91
2023-01-20T07:41:38.261Z,91
2023-01-20T07:42:44.900Z,91
2023-01-20T07:43:51.928Z,91
2023-01-20T07:44:59.070Z,91
2023-01-20T07:46:06.451Z,91
2023-01-20T07:47:13.208Z,91
2023-01-20T07:48:19.857Z,91
2023-01-20T07:49:26.935Z,91
2023-01-20T07:50:34.014Z,91
2023-01-20T07:51:41.215Z,90
2023-01-20T07:52:48.280Z,91
2023-01-20T07:53:54.890Z,91
2023-01-20T07:55:02.469Z,91
2023-01-20T07:56:09.050Z,90
2023-01-20T07:57:16.162Z,90
2023-01-20T07:58:23.366Z,90
2023-01-20T08:00:36.947Z,90
2023-01-20T08:01:44.170Z,90
2023-01-20T08:02:51.154Z,90
2023-01-20T08:03:58.253Z,90
2023-01-20T08:05:04.965Z,90
2023-01-20T08:06:11.930Z,90
2023-01-20T08:07:19.067Z,90
2023-01-20T08:08:26.216Z,90
2023-01-20T08:09:33.265Z,90
2023-01-20T08:10:39.878Z,90
2023-01-20T08:11:46.962Z,90
2023-01-20T08:12:54.086Z,90
2023-01-20T08:14:01.129Z,90
2023-01-20T08:15:08.298Z,90
2023-01-20T08:16:14.947Z,90
2023-01-20T08:17:21.967Z,90
2023-01-20T08:18:29.644Z,90
2023-01-20T08:19:36.240Z,90
2023-01-20T08:20:43.292Z,90
2023-01-20T08:21:49.867Z,90
2023-01-20T08:22:57.117Z,90
2023-01-20T08:24:04.056Z,90
2023-01-20T08:25:11.201Z,90
2023-01-20T08:26:18.312Z,90
2023-01-20T08:27:24.906Z,90
2023-01-20T08:28:32.001Z,90
2023-01-20T08:29:39.089Z,90
2023-01-20T08:30:46.299Z,90
2023-01-20T08:31:53.343Z,90
2023-01-20T08:32:59.971Z,90
2023-01-20T08:34:06.992Z,90
2023-01-20T08:35:14.512Z,90
2023-01-20T08:36:21.193Z,90
2023-01-20T08:37:28.295Z,90
2023-01-20T08:38:34.954Z,90
2023-01-20T08:39:42.007Z,90
2023-01-20T08:40:49.179Z,89
2023-01-20T08:41:56.196Z,89
2023-01-20T08:43:03.319Z,89
2023-01-20T08:44:10.035Z,89
2023-01-20T08:45:17.331Z,89
2023-01-20T08:47:31.263Z,89
2023-01-20T08:48:38.292Z,89
2023-01-20T08:49:44.895Z,89
2023-01-20T08:50:54.371Z,89
2023-01-20T08:51:59.117Z,89
2023-01-20T08:53:06.261Z,89
2023-01-20T08:54:12.814Z,89
2023-01-20T08:55:19.954Z,89
2023-01-20T08:56:27.047Z,89
2023-01-20T08:57:34.168Z,89
2023-01-20T08:58:41.207Z,89
2023-01-20T08:59:53.985Z,89
2023-01-20T09:00:55.051Z,89
2023-01-20T09:02:02.028Z,89
2023-01-20T09:04:16.275Z,89
2023-01-20T09:05:22.792Z,89
2023-01-20T09:06:29.940Z,89
2023-01-20T09:07:37.090Z,89
2023-01-20T09:08:44.180Z,89
2023-01-20T09:09:51.221Z,89
2023-01-20T09:10:57.849Z,89
2023-01-20T09:12:04.963Z,88
2023-01-20T09:13:12.078Z,88
2023-01-20T09:14:19.146Z,88
2023-01-20T09:15:26.315Z,88
2023-01-20T09:16:32.859Z,88
2023-01-20T09:17:39.972Z,88
2023-01-20T09:18:47.085Z,88
2023-01-20T09:19:54.145Z,88
2023-01-20T09:21:01.257Z,88
2023-01-20T09:22:08.369Z,88
2023-01-20T09:23:15.527Z,88
2023-01-20T09:24:22.078Z,88
2023-01-20T09:25:29.172Z,88
2023-01-20T09:26:36.397Z,88
2023-01-20T09:27:42.812Z,88
2023-01-20T09:28:49.976Z,88
2023-01-20T09:29:57.107Z,88
2023-01-20T09:31:04.340Z,88
2023-01-20T09:32:11.234Z,88
2023-01-20T09:33:17.907Z,88
2023-01-20T09:34:24.952Z,88
2023-01-20T09:35:32.052Z,88
2023-01-20T09:36:39.225Z,88
2023-01-20T09:37:46.330Z,88
2023-01-20T09:38:52.829Z,88
2023-01-20T09:39:59.942Z,88
2023-01-20T09:41:07.108Z,88
2023-01-20T09:42:14.226Z,88
2023-01-20T09:43:21.246Z,88
2023-01-20T09:44:27.866Z,88
2023-01-20T09:45:35.011Z,88
2023-01-20T09:46:42.080Z,88
2023-01-20T09:47:49.348Z,88
2023-01-20T09:48:56.335Z,88
2023-01-20T09:50:02.885Z,88
2023-01-20T09:51:09.986Z,88
2023-01-20T09:52:17.172Z,88
2023-01-20T09:53:24.228Z,88
2023-01-20T09:54:31.296Z,88
2023-01-20T09:55:37.916Z,88
2023-01-20T09:56:45.023Z,88
2023-01-20T09:57:52.229Z,88
2023-01-20T09:58:59.228Z,88
2023-01-20T10:00:06.330Z,88
2023-01-20T10:01:13.024Z,88
2023-01-20T10:02:20.139Z,88
2023-01-20T10:03:27.151Z,88
2023-01-20T10:04:34.254Z,88
2023-01-20T10:05:41.369Z,87
2023-01-20T10:07:55.070Z,87
2023-01-20T10:09:06.004Z,87
2023-01-20T10:10:09.244Z,87
2023-01-20T10:11:16.461Z,87
2023-01-20T10:12:22.905Z,87
2023-01-20T10:13:30.051Z,88
2023-01-20T10:15:44.307Z,87
2023-01-20T10:16:51.294Z,87
2023-01-20T10:17:57.944Z,87
2023-01-20T10:19:05.051Z,87
2023-01-20T10:20:12.150Z,87
2023-01-20T10:21:19.280Z,87
2023-01-20T10:22:26.352Z,87
2023-01-20T10:23:32.971Z,87
2023-01-20T10:24:40.051Z,87
2023-01-20T10:25:47.652Z,87
2023-01-20T10:26:54.295Z,87
2023-01-20T10:28:01.424Z,87
2023-01-20T10:29:07.924Z,87
2023-01-20T10:30:15.321Z,87
2023-01-20T10:31:22.304Z,87
2023-01-20T10:32:29.335Z,87
2023-01-20T10:33:36.361Z,87
2023-01-20T10:34:42.944Z,87
2023-01-20T10:35:50.088Z,87
2023-01-20T10:36:57.114Z,87
2023-01-20T10:38:04.262Z,87
2023-01-20T10:39:11.346Z,87
2023-01-20T10:40:18.053Z,87
2023-01-20T10:41:25.069Z,87
2023-01-20T10:42:32.195Z,87
2023-01-20T10:43:39.276Z,87
2023-01-20T10:44:46.400Z,87
2023-01-20T10:45:52.992Z,87
2023-01-20T10:47:00.089Z,87
2023-01-20T10:48:07.213Z,87
2023-01-20T10:49:14.331Z,87
2023-01-20T10:50:21.399Z,87
2023-01-20T10:51:28.520Z,87
2023-01-20T10:52:35.145Z,87
2023-01-20T10:53:42.141Z,86
2023-01-20T10:54:49.315Z,86
2023-01-20T10:55:58.007Z,86
2023-01-20T10:57:03.353Z,86
2023-01-20T10:58:10.074Z,86
2023-01-20T10:59:17.199Z,86
2023-01-20T11:00:24.343Z,86
2023-01-20T11:01:30.887Z,86
2023-01-20T11:02:38.206Z,86
2023-01-20T11:03:45.077Z,86
2023-01-20T11:04:52.210Z,86
2023-01-20T11:05:59.315Z,86
2023-01-20T11:07:05.913Z,86
2023-01-20T11:08:13.024Z,86
2023-01-20T11:09:20.131Z,86
2023-01-20T11:10:27.261Z,86
2023-01-20T11:11:34.300Z,86
2023-01-20T11:12:40.850Z,86
2023-01-20T11:13:48.100Z,86
2023-01-20T11:14:55.056Z,86
2023-01-20T11:16:02.257Z,86
2023-01-20T11:17:09.335Z,86
2023-01-20T11:18:15.989Z,86
2023-01-20T11:19:22.964Z,86
2023-01-20T11:20:30.161Z,86
2023-01-20T11:21:37.366Z,86
2023-01-20T11:22:44.374Z,86
2023-01-20T11:23:50.864Z,86
2023-01-20T11:24:58.020Z,86
2023-01-20T11:26:05.111Z,86
2023-01-20T11:27:12.317Z,86
2023-01-20T11:28:19.364Z,86
2023-01-20T11:29:26.430Z,86
2023-01-20T11:30:33.037Z,86
2023-01-20T11:31:40.210Z,86
2023-01-20T11:32:47.253Z,86
2023-01-20T11:33:54.333Z,86
2023-01-20T11:35:00.915Z,86
2023-01-20T11:36:08.071Z,86
2023-01-20T11:37:15.259Z,85
2023-01-20T11:38:22.308Z,86
2023-01-20T11:39:29.394Z,86
2023-01-20T11:40:35.913Z,86
2023-01-20T11:41:43.057Z,85
2023-01-20T11:43:57.314Z,85
2023-01-20T11:45:20.187Z,85
2023-01-20T11:46:10.939Z,85
2023-01-20T11:47:18.082Z,85
2023-01-20T11:48:25.179Z,85
2023-01-20T11:49:32.249Z,85
2023-01-20T11:50:39.399Z,85
2023-01-20T11:51:46.549Z,85
2023-01-20T11:52:53.031Z,85
2023-01-20T11:54:00.227Z,85
2023-01-20T11:55:07.280Z,85
2023-01-20T11:56:14.409Z,85
2023-01-20T11:57:20.945Z,85
2023-01-20T11:58:28.093Z,85
2023-01-20T11:59:35.255Z,85
2023-01-20T12:00:42.272Z,85
2023-01-20T12:01:49.550Z,85
2023-01-20T12:02:55.968Z,85
2023-01-20T12:04:03.064Z,85
2023-01-20T12:05:10.252Z,85
2023-01-20T12:06:17.322Z,85
2023-01-20T12:07:24.400Z,85
2023-01-20T12:08:30.957Z,85
2023-01-20T12:09:38.102Z,85
2023-01-20T12:10:45.269Z,85
2023-01-20T12:11:52.281Z,85
2023-01-20T12:12:59.434Z,85
2023-01-20T12:14:06.072Z,85
2023-01-20T12:15:13.043Z,85
2023-01-20T12:16:20.312Z,85
2023-01-20T12:17:27.348Z,85
2023-01-20T12:18:34.457Z,85
2023-01-20T12:19:41.514Z,85
2023-01-20T12:20:54.902Z,85
2023-01-20T12:21:55.228Z,85
2023-01-20T12:23:02.299Z,85
2023-01-20T12:24:09.445Z,85
2023-01-20T12:25:16.023Z,85
2023-01-20T12:26:23.056Z,85
2023-01-20T12:27:30.299Z,85
2023-01-20T12:28:37.281Z,85
2023-01-20T12:29:44.446Z,85
2023-01-20T12:30:51.008Z,84
2023-01-20T12:31:58.162Z,84
2023-01-20T12:34:12.299Z,84
2023-01-20T12:35:19.423Z,84
2023-01-20T12:36:26.054Z,84
2023-01-20T12:37:33.094Z,84
2023-01-20T12:38:40.279Z,84
2023-01-20T12:39:47.282Z,84
2023-01-20T12:40:54.419Z,84
2023-01-20T12:42:02.874Z,84
2023-01-20T12:43:08.180Z,84
2023-01-20T12:44:15.220Z,84
2023-01-20T12:45:22.310Z,84
2023-01-20T12:46:29.494Z,84
2023-01-20T12:47:36.055Z,84
2023-01-20T12:48:43.132Z,84
2023-01-20T12:49:50.291Z,84
2023-01-20T12:50:57.351Z,84
2023-01-20T12:52:04.474Z,84
2023-01-20T12:53:11.065Z,84
2023-01-20T12:54:18.167Z,84
2023-01-20T12:55:25.270Z,84
2023-01-20T12:56:32.339Z,84
2023-01-20T12:57:39.511Z,84
2023-01-20T12:58:46.063Z,84
2023-01-20T12:59:53.133Z,84
2023-01-20T13:01:00.290Z,84
2023-01-20T13:02:07.514Z,84
2023-01-20T13:03:14.505Z,84
2023-01-20T13:04:21.040Z,84
2023-01-20T13:05:28.130Z,84
2023-01-20T13:06:35.276Z,84
2023-01-20T13:07:42.411Z,84
2023-01-20T13:08:49.499Z,84
2023-01-20T13:09:56.071Z,84
2023-01-20T13:12:10.250Z,84
2023-01-20T13:13:17.454Z,83
2023-01-20T13:14:24.484Z,83
2023-01-20T13:15:31.063Z,84
2023-01-20T13:16:38.809Z,83
2023-01-20T13:17:45.299Z,83
2023-01-20T13:18:52.399Z,83
2023-01-20T13:19:58.979Z,83
2023-01-20T13:21:06.096Z,83
2023-01-20T13:22:13.180Z,83
2023-01-20T13:23:20.274Z,83
2023-01-20T13:24:27.374Z,83
2023-01-20T13:25:33.951Z,83
2023-01-20T13:26:41.050Z,83
2023-01-20T13:27:50.918Z,83
2023-01-20T13:28:55.296Z,83
2023-01-20T13:30:02.378Z,83
2023-01-20T13:31:09.119Z,83
2023-01-20T13:32:16.079Z,83
2023-01-20T13:33:23.201Z,83
2023-01-20T13:34:30.313Z,83
2023-01-20T13:35:37.398Z,83
2023-01-20T13:37:51.115Z,83
2023-01-20T13:38:58.181Z,83
2023-01-20T13:40:05.318Z,83
2023-01-20T13:41:12.530Z,83
2023-01-20T13:42:18.953Z,83
2023-01-20T13:43:26.123Z,83
2023-01-20T13:44:33.196Z,83
2023-01-20T13:45:40.326Z,83
2023-01-20T13:46:47.479Z,83
2023-01-20T13:47:54.597Z,83
2023-01-20T13:49:01.099Z,83
2023-01-20T13:50:08.221Z,83
2023-01-20T13:51:15.353Z,83
2023-01-20T13:52:22.460Z,83
2023-01-20T13:53:29.169Z,83
2023-01-20T13:54:36.155Z,83
2023-01-20T13:55:43.219Z,83
2023-01-20T13:56:50.331Z,83
2023-01-20T13:57:57.458Z,83
2023-01-20T13:59:04.059Z,83
2023-01-20T14:00:11.098Z,83
2023-01-20T14:01:18.292Z,83
2023-01-20T14:02:28.495Z,83
2023-01-20T14:03:32.498Z,83
2023-01-20T14:04:39.010Z,83
2023-01-20T14:05:46.111Z,83
2023-01-20T14:06:53.298Z,83
2023-01-20T14:08:00.425Z,83
2023-01-20T14:09:09.356Z,83
2023-01-20T14:10:14.388Z,83
2023-01-20T14:11:21.160Z,83
2023-01-20T14:12:28.296Z,83
2023-01-20T14:13:35.407Z,83
2023-01-20T14:14:42.424Z,83
2023-01-20T14:15:49.185Z,83
2023-01-20T14:16:56.170Z,83
2023-01-20T14:18:03.269Z,83
2023-01-20T14:19:10.368Z,83
2023-01-20T14:20:17.944Z,83
2023-01-20T14:21:24.011Z,83
2023-01-20T14:22:31.112Z,83
2023-01-20T14:23:38.321Z,83
2023-01-20T14:24:45.381Z,83
2023-01-20T14:25:52.461Z,83
2023-01-20T14:26:59.091Z,83
2023-01-20T14:28:06.218Z,83
2023-01-20T14:29:13.228Z,83
2023-01-20T14:30:20.398Z,83
2023-01-20T14:31:27.609Z,83
2023-01-20T14:32:34.023Z,83
2023-01-20T14:33:41.241Z,83
2023-01-20T14:34:48.328Z,83
2023-01-20T14:35:55.425Z,83
2023-01-20T14:37:02.494Z,83
2023-01-20T14:38:09.133Z,83
2023-01-20T14:41:30.513Z,83
2023-01-20T14:42:37.495Z,83
2023-01-20T14:43:44.138Z,83
2023-01-20T14:44:51.206Z,83
2023-01-20T14:45:58.367Z,83
2023-01-20T14:47:05.437Z,83
2023-01-20T14:48:16.922Z,83
2023-01-20T14:49:19.114Z,82
2023-01-20T14:50:26.237Z,82
2023-01-20T14:51:33.299Z,83
2023-01-20T14:52:40.404Z,83
2023-01-20T14:53:47.589Z,82
2023-01-20T14:54:54.142Z,83
2023-01-20T14:56:01.207Z,82
2023-01-20T14:57:08.345Z,82
2023-01-20T14:58:15.450Z,82
2023-01-20T14:59:22.549Z,82
2023-01-20T15:00:29.133Z,82
2023-01-20T15:01:36.251Z,82
2023-01-20T15:02:43.362Z,82
2023-01-20T15:03:50.442Z,82
2023-01-20T15:04:57.629Z,82
2023-01-20T15:06:04.171Z,82
2023-01-20T15:07:11.214Z,82
2023-01-20T15:08:18.332Z,82
2023-01-20T15:09:25.501Z,82
2023-01-20T15:10:32.555Z,82
2023-01-20T15:41:48.772Z,81
2023-01-20T15:42:55.051Z,82
2023-01-20T15:45:09.303Z,81
2023-01-20T15:46:16.447Z,81
2023-01-20T15:47:23.524Z,81
2023-01-20T15:48:30.090Z,81
2023-01-20T15:49:37.267Z,81
2023-01-20T15:50:44.348Z,81
2023-01-20T15:51:51.461Z,81
2023-01-20T15:52:58.588Z,81
2023-01-20T15:54:05.058Z,81
2023-01-20T15:55:12.213Z,81
2023-01-20T15:56:19.298Z,81
2023-01-20T15:57:26.560Z,81
2023-01-20T15:58:33.565Z,81
2023-01-20T15:59:40.146Z,81
2023-01-20T16:00:47.280Z,81
2023-01-20T16:01:54.372Z,81
2023-01-20T16:03:01.545Z,81
2023-01-20T16:04:08.672Z,81
2023-01-20T16:05:17.479Z,81
2023-01-20T16:06:22.174Z,81
2023-01-20T16:08:36.500Z,81
2023-01-20T16:09:43.533Z,81
2023-01-20T16:10:50.177Z,81
2023-01-20T16:11:57.257Z,81
2023-01-20T16:13:04.331Z,81
2023-01-20T16:14:11.534Z,81
2023-01-20T16:15:18.529Z,80
2023-01-20T16:16:26.844Z,80
2023-01-20T16:17:32.222Z,80
2023-01-20T16:18:39.338Z,80
2023-01-20T16:19:46.506Z,80
2023-01-20T16:20:53.553Z,80
2023-01-20T16:22:00.177Z,80
2023-01-20T16:23:07.325Z,80
2023-01-20T16:24:14.347Z,80
2023-01-20T16:25:21.497Z,80
2023-01-20T16:26:28.584Z,80
2023-01-20T16:27:35.129Z,80
2023-01-20T16:28:42.264Z,80
2023-01-20T16:29:49.412Z,80
2023-01-20T16:30:56.560Z,80
2023-01-20T16:32:03.554Z,80
2023-01-20T16:33:10.145Z,80
2023-01-20T16:34:17.297Z,80
2023-01-20T16:35:24.362Z,79
2023-01-20T16:36:31.531Z,79
2023-01-20T16:37:38.621Z,79
2023-01-20T16:38:45.158Z,79
2023-01-20T16:39:52.318Z,79
2023-01-20T16:40:59.424Z,79
2023-01-20T16:42:06.531Z,79
2023-01-20T16:43:13.618Z,79
2023-01-20T16:44:21.068Z,79
2023-01-20T16:45:27.422Z,79
2023-01-20T16:46:34.382Z,79
2023-01-20T16:48:48.633Z,79
2023-01-20T16:49:55.162Z,79
2023-01-20T16:51:02.358Z,79
2023-01-20T16:52:09.372Z,79
2023-01-20T16:53:16.510Z,79
2023-01-20T16:54:23.587Z,79
2023-01-20T16:55:30.241Z,79
2023-01-20T16:56:37.347Z,79